createdAt,value
2018-07-30T00:00:25.214Z,49.95
2018-07-30T00:01:25.232Z,50.04
2018-07-30T00:02:25.255Z,49.66
2018-07-30T00:03:25.354Z,50.53
2018-07-30T00:04:25.301Z,50.04
2018-07-30T00:05:25.348Z,49.95
2018-07-30T00:06:25.335Z,49.85
2018-07-30T00:07:25.356Z,49.95
2018-07-30T00:08:25.374Z,49.85
2018-07-30T00:09:25.396Z,50.14
2018-07-30T00:10:25.421Z,50.14
2018-07-30T00:11:25.442Z,50.53
2018-07-30T00:12:25.460Z,50.24
2018-07-30T00:13:25.497Z,50.53
2018-07-30T00:14:25.504Z,50.53
2018-07-30T00:15:25.524Z,50.14
2018-07-30T00:16:25.548Z,50.24
2018-07-30T00:17:25.573Z,50.04
2018-07-30T00:18:25.592Z,50.24
2018-07-30T00:19:25.619Z,50.04
2018-07-30T00:20:25.635Z,49.95
2018-07-30T00:21:25.709Z,50.24
2018-07-30T00:22:25.666Z,50.53
2018-07-30T00:23:25.699Z,50.24
2018-07-30T00:24:25.717Z,50.34
2018-07-30T00:25:25.743Z,49.95
2018-07-30T00:26:25.763Z,50.43
2018-07-30T00:27:25.791Z,50.24
2018-07-30T00:28:25.802Z,50.24
2018-07-30T00:29:25.826Z,49.95
2018-07-30T00:30:25.849Z,50.43
2018-07-30T00:31:25.902Z,50.43
2018-07-30T00:32:25.890Z,50.24
2018-07-30T00:33:25.981Z,50.34
2018-07-30T00:34:25.933Z,49.95
2018-07-30T00:35:25.955Z,50.14
2018-07-30T00:36:25.979Z,50.04
2018-07-30T00:37:26.001Z,50.02
2018-07-30T00:38:26.013Z,50.14
2018-07-30T00:39:26.038Z,50.24
2018-07-30T00:40:26.060Z,49.95
2018-07-30T00:41:26.094Z,49.95
2018-07-30T00:42:26.102Z,49.95
2018-07-30T00:43:26.122Z,50.43
2018-07-30T00:44:26.149Z,50.31
2018-07-30T00:45:26.165Z,50.41
2018-07-30T00:46:26.191Z,50.31
2018-07-30T00:47:26.212Z,50.99
2018-07-30T00:48:26.247Z,51.01
2018-07-30T00:49:26.257Z,50.89
2018-07-30T00:50:26.271Z,50.70
2018-07-30T00:51:26.297Z,50.51
2018-07-30T00:52:26.318Z,51.09
2018-07-30T00:53:26.336Z,50.80
2018-07-30T00:54:26.361Z,50.99
2018-07-30T00:55:26.388Z,50.80
2018-07-30T00:56:26.406Z,50.89
2018-07-30T00:57:26.424Z,51.09
2018-07-30T00:58:26.442Z,50.80
2018-07-30T00:59:26.473Z,51.18
2018-07-30T01:00:26.497Z,51.40
2018-07-30T01:01:26.505Z,51.38
2018-07-30T01:02:26.529Z,50.99
2018-07-30T01:03:26.605Z,50.80
2018-07-30T01:04:26.573Z,50.99
2018-07-30T01:05:26.590Z,50.89
2018-07-30T01:06:26.633Z,51.60
2018-07-30T01:07:26.643Z,51.18
2018-07-30T01:08:26.652Z,50.89
2018-07-30T01:09:26.683Z,51.01
2018-07-30T01:10:26.709Z,50.89
2018-07-30T01:11:26.725Z,51.09
2018-07-30T01:12:26.744Z,51.18
2018-07-30T01:13:26.774Z,50.89
2018-07-30T01:14:26.805Z,51.09
2018-07-30T01:15:26.826Z,51.09
2018-07-30T01:16:26.884Z,51.18
2018-07-30T01:17:26.850Z,51.09
2018-07-30T01:18:26.871Z,51.09
2018-07-30T01:19:26.897Z,50.89
2018-07-30T01:20:26.907Z,51.09
2018-07-30T01:21:26.935Z,50.89
2018-07-30T01:22:26.965Z,50.89
2018-07-30T01:23:26.973Z,51.09
2018-07-30T01:24:27.000Z,51.38
2018-07-30T01:25:27.023Z,51.09
2018-07-30T01:26:27.046Z,51.09
2018-07-30T01:27:27.064Z,51.09
2018-07-30T01:28:27.086Z,51.09
2018-07-30T01:29:27.105Z,50.99
2018-07-30T01:30:27.136Z,51.09
2018-07-30T01:31:27.161Z,50.80
2018-07-30T01:32:27.173Z,50.99
2018-07-30T01:33:27.184Z,51.09
2018-07-30T01:34:27.222Z,50.99
2018-07-30T01:35:27.236Z,50.99
2018-07-30T01:36:27.263Z,50.99
2018-07-30T01:37:27.276Z,50.70
2018-07-30T01:38:27.301Z,50.99
2018-07-30T01:39:27.317Z,51.09
2018-07-30T01:40:27.342Z,51.28
2018-07-30T01:41:27.363Z,50.89
2018-07-30T01:42:27.388Z,51.11
2018-07-30T01:43:27.405Z,51.09
2018-07-30T01:44:27.428Z,51.09
2018-07-30T01:45:27.455Z,50.82
2018-07-30T01:46:27.470Z,50.70
2018-07-30T01:47:27.492Z,50.70
2018-07-30T01:48:27.511Z,50.89
2018-07-30T01:49:27.559Z,51.18
2018-07-30T01:50:27.560Z,51.28
2018-07-30T01:51:27.575Z,50.92
2018-07-30T01:52:27.597Z,51.28
2018-07-30T01:53:27.618Z,51.38
2018-07-30T01:54:27.632Z,51.11
2018-07-30T01:55:27.723Z,51.18
2018-07-30T01:56:27.679Z,50.99
2018-07-30T01:57:27.705Z,50.99
2018-07-30T01:58:27.724Z,50.82
2018-07-30T01:59:27.753Z,51.11
2018-07-30T02:00:27.773Z,50.89
2018-07-30T02:01:27.792Z,51.38
2018-07-30T02:02:27.814Z,50.80
2018-07-30T02:03:27.829Z,50.89
2018-07-30T02:04:27.857Z,50.80
2018-07-30T02:05:27.873Z,50.70
2018-07-30T02:06:27.908Z,50.82
2018-07-30T02:07:27.928Z,51.11
2018-07-30T02:08:27.937Z,51.11
2018-07-30T02:09:27.961Z,50.89
2018-07-30T02:10:27.980Z,50.99
2018-07-30T02:11:28.005Z,51.18
2018-07-30T02:12:28.026Z,51.21
2018-07-30T02:13:28.041Z,51.38
2018-07-30T02:14:28.069Z,51.18
2018-07-30T02:15:28.094Z,51.28
2018-07-30T02:16:28.107Z,50.82
2018-07-30T02:17:28.129Z,50.92
2018-07-30T02:18:28.150Z,51.21
2018-07-30T02:19:28.173Z,50.70
2018-07-30T02:20:28.196Z,51.28
2018-07-30T02:21:28.226Z,51.18
2018-07-30T02:22:28.232Z,50.99
2018-07-30T02:23:28.251Z,51.18
2018-07-30T02:24:28.281Z,50.89
2018-07-30T02:25:28.296Z,50.73
2018-07-30T02:26:28.325Z,50.99
2018-07-30T02:27:28.379Z,50.70
2018-07-30T02:28:28.372Z,51.28
2018-07-30T02:29:28.383Z,50.99
2018-07-30T02:30:28.408Z,51.18
2018-07-30T02:31:28.433Z,51.09
2018-07-30T02:32:28.452Z,51.09
2018-07-30T02:33:28.472Z,51.09
2018-07-30T02:34:28.493Z,51.28
2018-07-30T02:35:28.524Z,51.38
2018-07-30T02:36:28.535Z,51.28
2018-07-30T02:37:28.553Z,50.89
2018-07-30T02:38:28.585Z,51.48
2018-07-30T02:39:28.616Z,51.09
2018-07-30T02:40:28.624Z,51.48
2018-07-30T02:41:28.641Z,51.97
2018-07-30T02:42:28.661Z,51.87
2018-07-30T02:43:28.684Z,51.57
2018-07-30T02:44:28.709Z,51.77
2018-07-30T02:45:28.728Z,51.77
2018-07-30T02:46:28.751Z,51.67
2018-07-30T02:47:28.769Z,51.67
2018-07-30T02:48:28.787Z,51.77
2018-07-30T02:49:28.822Z,51.77
2018-07-30T02:50:28.834Z,51.57
2018-07-30T02:51:28.862Z,51.67
2018-07-30T02:52:28.868Z,51.97
2018-07-30T02:53:28.900Z,51.87
2018-07-30T02:54:28.921Z,51.77
2018-07-30T02:55:28.956Z,51.57
2018-07-30T02:56:28.973Z,51.97
2018-07-30T02:57:29.034Z,51.57
2018-07-30T02:58:29.001Z,51.48
2018-07-30T02:59:29.029Z,51.48
2018-07-30T03:00:29.056Z,51.57
2018-07-30T03:01:29.078Z,51.67
2018-07-30T03:02:29.087Z,51.87
2018-07-30T03:03:29.120Z,51.77
2018-07-30T03:04:29.136Z,51.87
2018-07-30T03:05:29.151Z,51.67
2018-07-30T03:06:29.180Z,51.57
2018-07-30T03:07:29.201Z,51.57
2018-07-30T03:08:29.218Z,51.77
2018-07-30T03:09:29.358Z,52.15
2018-07-30T03:10:29.261Z,51.57
2018-07-30T03:11:29.282Z,51.67
2018-07-30T03:12:29.303Z,51.87
2018-07-30T03:13:29.318Z,51.87
2018-07-30T03:14:29.353Z,51.97
2018-07-30T03:15:29.366Z,51.87
2018-07-30T03:16:29.386Z,51.87
2018-07-30T03:17:29.418Z,51.77
2018-07-30T03:18:29.435Z,51.48
2018-07-30T03:19:29.444Z,51.67
2018-07-30T03:20:29.510Z,52.06
2018-07-30T03:21:29.506Z,51.87
2018-07-30T03:22:29.508Z,51.57
2018-07-30T03:23:29.534Z,52.06
2018-07-30T03:24:29.564Z,52.06
2018-07-30T03:25:29.593Z,51.77
2018-07-30T03:26:29.605Z,51.77
2018-07-30T03:27:29.617Z,52.15
2018-07-30T03:28:29.643Z,52.35
2018-07-30T03:29:29.663Z,52.15
2018-07-30T03:30:29.686Z,52.06
2018-07-30T03:31:29.716Z,52.15
2018-07-30T03:32:29.726Z,52.06
2018-07-30T03:33:29.746Z,51.57
2018-07-30T03:34:29.771Z,52.15
2018-07-30T03:35:29.793Z,51.87
2018-07-30T03:36:29.811Z,52.06
2018-07-30T03:37:29.848Z,52.15
2018-07-30T03:38:29.855Z,51.67
2018-07-30T03:39:29.876Z,52.35
2018-07-30T03:40:29.897Z,51.87
2018-07-30T03:41:29.921Z,51.67
2018-07-30T03:42:29.943Z,52.06
2018-07-30T03:43:29.959Z,51.97
2018-07-30T03:44:29.982Z,51.87
2018-07-30T03:45:30.001Z,51.97
2018-07-30T03:46:30.025Z,52.06
2018-07-30T03:47:30.051Z,52.06
2018-07-30T03:48:30.062Z,52.15
2018-07-30T03:49:30.093Z,51.97
2018-07-30T03:50:30.115Z,51.97
2018-07-30T03:51:30.129Z,51.87
2018-07-30T03:52:30.174Z,52.25
2018-07-30T03:53:30.176Z,52.06
2018-07-30T03:54:30.190Z,51.87
2018-07-30T03:55:30.211Z,51.87
2018-07-30T03:56:30.240Z,52.15
2018-07-30T03:57:30.274Z,51.87
2018-07-30T03:58:30.280Z,52.15
2018-07-30T03:59:30.316Z,52.15
2018-07-30T04:00:30.329Z,52.06
2018-07-30T04:01:30.342Z,52.25
2018-07-30T04:02:30.366Z,52.55
2018-07-30T04:03:30.381Z,52.64
2018-07-30T04:04:30.411Z,51.87
2018-07-30T04:05:30.424Z,52.15
2018-07-30T04:06:30.539Z,52.55
2018-07-30T04:07:30.472Z,52.55
2018-07-30T04:08:30.493Z,52.35
2018-07-30T04:09:30.506Z,52.45
2018-07-30T04:10:30.530Z,52.64
2018-07-30T04:11:30.560Z,51.87
2018-07-30T04:12:30.569Z,52.15
2018-07-30T04:13:30.597Z,52.06
2018-07-30T04:14:30.615Z,51.97
2018-07-30T04:15:30.641Z,52.06
2018-07-30T04:16:30.658Z,52.45
2018-07-30T04:17:30.681Z,52.06
2018-07-30T04:18:30.703Z,52.25
2018-07-30T04:19:30.725Z,52.25
2018-07-30T04:20:30.744Z,51.77
2018-07-30T04:21:30.770Z,51.77
2018-07-30T04:22:30.792Z,52.15
2018-07-30T04:23:30.808Z,51.97
2018-07-30T04:24:30.835Z,51.97
2018-07-30T04:25:30.854Z,52.15
2018-07-30T04:26:30.879Z,51.87
2018-07-30T04:27:30.895Z,52.25
2018-07-30T04:28:30.913Z,52.03
2018-07-30T04:29:30.935Z,51.97
2018-07-30T04:30:30.956Z,51.87
2018-07-30T04:31:30.977Z,51.77
2018-07-30T04:32:30.996Z,52.15
2018-07-30T04:33:31.030Z,51.87
2018-07-30T04:34:31.063Z,52.55
2018-07-30T04:35:31.076Z,52.06
2018-07-30T04:36:31.089Z,51.87
2018-07-30T04:37:31.109Z,51.97
2018-07-30T04:38:31.128Z,52.15
2018-07-30T04:39:31.148Z,52.55
2018-07-30T04:40:31.185Z,51.87
2018-07-30T04:41:31.183Z,52.55
2018-07-30T04:42:31.217Z,52.55
2018-07-30T04:43:31.229Z,52.55
2018-07-30T04:44:31.262Z,52.55
2018-07-30T04:45:31.272Z,51.77
2018-07-30T04:46:31.298Z,51.97
2018-07-30T04:47:31.318Z,52.55
2018-07-30T04:48:31.343Z,52.15
2018-07-30T04:49:31.367Z,51.77
2018-07-30T04:50:31.380Z,52.06
2018-07-30T04:51:31.401Z,51.87
2018-07-30T04:52:31.423Z,51.77
2018-07-30T04:53:31.444Z,51.77
2018-07-30T04:54:31.462Z,52.64
2018-07-30T04:55:31.489Z,52.64
2018-07-30T04:56:31.516Z,52.55
2018-07-30T04:57:31.528Z,52.55
2018-07-30T04:58:31.552Z,52.45
2018-07-30T04:59:31.575Z,52.55
2018-07-30T05:00:31.595Z,51.87
2018-07-30T05:01:31.612Z,52.45
2018-07-30T05:02:31.632Z,52.64
2018-07-30T05:03:31.655Z,52.64
2018-07-30T05:04:31.680Z,52.35
2018-07-30T05:05:31.693Z,52.35
2018-07-30T05:06:31.720Z,52.35
2018-07-30T05:07:31.742Z,52.55
2018-07-30T05:08:31.766Z,52.45
2018-07-30T05:09:31.787Z,52.55
2018-07-30T05:10:31.803Z,52.55
2018-07-30T05:11:31.826Z,52.35
2018-07-30T05:12:31.846Z,52.45
2018-07-30T05:13:31.873Z,52.15
2018-07-30T05:14:31.900Z,52.55
2018-07-30T05:15:31.945Z,52.55
2018-07-30T05:16:31.928Z,52.35
2018-07-30T05:17:31.950Z,52.35
2018-07-30T05:18:31.979Z,52.06
2018-07-30T05:19:31.998Z,52.35
2018-07-30T05:20:32.017Z,52.55
2018-07-30T05:21:32.036Z,51.87
2018-07-30T05:22:32.058Z,51.77
2018-07-30T05:23:32.081Z,51.87
2018-07-30T05:24:32.108Z,51.77
2018-07-30T05:25:32.180Z,51.97
2018-07-30T05:26:32.139Z,52.45
2018-07-30T05:27:32.163Z,51.67
2018-07-30T05:28:32.186Z,51.97
2018-07-30T05:29:32.206Z,52.55
2018-07-30T05:30:32.232Z,52.64
2018-07-30T05:31:32.299Z,51.87
2018-07-30T05:32:32.281Z,52.55
2018-07-30T05:33:32.289Z,52.55
2018-07-30T05:34:32.317Z,52.45
2018-07-30T05:35:32.334Z,52.45
2018-07-30T05:36:32.357Z,52.55
2018-07-30T05:37:32.375Z,52.55
2018-07-30T05:38:32.399Z,51.97
2018-07-30T05:39:32.427Z,52.55
2018-07-30T05:40:32.441Z,51.77
2018-07-30T05:41:32.456Z,52.15
2018-07-30T05:42:32.486Z,52.15
2018-07-30T05:43:32.510Z,51.87
2018-07-30T05:44:32.524Z,51.77
2018-07-30T05:45:32.546Z,51.97
2018-07-30T05:46:32.575Z,51.97
2018-07-30T05:47:32.591Z,52.64
2018-07-30T05:48:32.603Z,52.55
2018-07-30T05:49:32.634Z,51.97
2018-07-30T05:50:32.650Z,52.06
2018-07-30T05:51:32.676Z,51.87
2018-07-30T05:52:32.693Z,52.64
2018-07-30T05:53:32.746Z,52.45
2018-07-30T05:54:32.783Z,52.64
2018-07-30T05:55:32.759Z,52.64
2018-07-30T05:56:32.790Z,52.45
2018-07-30T05:57:32.802Z,52.06
2018-07-30T05:58:32.822Z,51.87
2018-07-30T05:59:32.893Z,52.15
2018-07-30T06:00:32.877Z,51.77
2018-07-30T06:01:32.892Z,51.77
2018-07-30T06:02:32.900Z,51.87
2018-07-30T06:03:32.929Z,51.77
2018-07-30T06:04:32.949Z,51.87
2018-07-30T06:05:33.027Z,52.35
2018-07-30T06:06:33.005Z,52.74
2018-07-30T06:07:33.037Z,52.64
2018-07-30T06:08:33.052Z,52.64
2018-07-30T06:09:33.097Z,52.74
2018-07-30T06:10:33.077Z,52.94
2018-07-30T06:11:33.094Z,52.64
2018-07-30T06:12:33.119Z,52.86
2018-07-30T06:13:33.142Z,52.64
2018-07-30T06:14:33.161Z,52.76
2018-07-30T06:15:33.184Z,52.76
2018-07-30T06:16:33.201Z,52.86
2018-07-30T06:17:33.217Z,52.67
2018-07-30T06:18:33.244Z,52.86
2018-07-30T06:19:33.277Z,52.86
2018-07-30T06:20:33.286Z,52.76
2018-07-30T06:21:33.304Z,52.76
2018-07-30T06:22:33.329Z,52.67
2018-07-30T06:23:33.355Z,52.76
2018-07-30T06:24:33.372Z,52.57
2018-07-30T06:25:33.402Z,53.06
2018-07-30T06:26:33.496Z,52.37
2018-07-30T06:27:33.437Z,52.96
2018-07-30T06:28:33.456Z,52.37
2018-07-30T06:29:33.492Z,52.96
2018-07-30T06:30:33.501Z,52.47
2018-07-30T06:31:33.519Z,52.76
2018-07-30T06:32:33.544Z,52.37
2018-07-30T06:33:33.575Z,52.37
2018-07-30T06:34:33.587Z,52.86
2018-07-30T06:35:33.605Z,52.86
2018-07-30T06:36:33.620Z,52.67
2018-07-30T06:37:33.648Z,52.76
2018-07-30T06:38:33.730Z,52.67
2018-07-30T06:39:33.692Z,52.76
2018-07-30T06:40:33.717Z,52.67
2018-07-30T06:41:33.733Z,52.76
2018-07-30T06:42:33.768Z,52.76
2018-07-30T06:43:33.780Z,52.76
2018-07-30T06:44:33.800Z,52.76
2018-07-30T06:45:33.813Z,52.76
2018-07-30T06:46:33.844Z,52.67
2018-07-30T06:47:33.862Z,52.59
2018-07-30T06:48:33.887Z,52.76
2018-07-30T06:49:33.927Z,52.76
2018-07-30T06:50:33.951Z,52.67
2018-07-30T06:51:33.951Z,52.57
2018-07-30T06:52:33.964Z,52.57
2018-07-30T06:53:33.995Z,52.89
2018-07-30T06:54:34.024Z,52.79
2018-07-30T06:55:34.036Z,52.69
2018-07-30T06:56:34.069Z,52.89
2018-07-30T06:57:34.080Z,52.69
2018-07-30T06:58:34.098Z,52.69
2018-07-30T06:59:34.125Z,52.79
2018-07-30T07:00:34.146Z,52.59
2018-07-30T07:01:34.167Z,53.28
2018-07-30T07:02:34.191Z,52.79
2018-07-30T07:03:34.225Z,52.79
2018-07-30T07:04:34.238Z,52.79
2018-07-30T07:05:34.249Z,52.79
2018-07-30T07:06:34.276Z,52.79
2018-07-30T07:07:34.348Z,52.76
2018-07-30T07:08:34.313Z,52.76
2018-07-30T07:09:34.336Z,52.79
2018-07-30T07:10:34.358Z,52.89
2018-07-30T07:11:34.380Z,52.79
2018-07-30T07:12:34.438Z,52.86
2018-07-30T07:13:34.435Z,52.79
2018-07-30T07:14:34.439Z,52.79
2018-07-30T07:15:34.474Z,52.86
2018-07-30T07:16:34.522Z,52.79
2018-07-30T07:17:34.514Z,52.67
2018-07-30T07:18:34.530Z,52.76
2018-07-30T07:19:34.549Z,52.98
2018-07-30T07:20:34.573Z,52.59
2018-07-30T07:21:34.630Z,52.59
2018-07-30T07:22:34.621Z,52.40
2018-07-30T07:23:34.643Z,52.31
2018-07-30T07:24:34.674Z,52.50
2018-07-30T07:25:34.680Z,52.50
2018-07-30T07:26:34.700Z,52.59
2018-07-30T07:27:34.728Z,52.50
2018-07-30T07:28:34.747Z,52.59
2018-07-30T07:29:34.776Z,52.59
2018-07-30T07:30:34.791Z,52.59
2018-07-30T07:31:34.814Z,52.69
2018-07-30T07:32:34.834Z,52.50
2018-07-30T07:33:34.857Z,52.69
2018-07-30T07:34:34.882Z,52.50
2018-07-30T07:35:34.896Z,52.40
2018-07-30T07:36:34.923Z,52.69
2018-07-30T07:37:34.937Z,52.50
2018-07-30T07:38:34.976Z,52.50
2018-07-30T07:39:34.984Z,52.59
2018-07-30T07:40:35.006Z,52.59
2018-07-30T07:41:35.021Z,52.31
2018-07-30T07:42:35.045Z,52.40
2018-07-30T07:43:35.069Z,52.50
2018-07-30T07:44:35.080Z,52.11
2018-07-30T07:45:35.122Z,52.11
2018-07-30T07:46:35.136Z,52.11
2018-07-30T07:47:35.146Z,52.40
2018-07-30T07:48:35.205Z,52.50
2018-07-30T07:49:35.208Z,52.40
2018-07-30T07:50:35.543Z,52.59
2018-07-30T07:51:35.281Z,52.40
2018-07-30T07:52:35.276Z,52.50
2018-07-30T07:53:35.281Z,53.18
2018-07-30T07:54:35.296Z,52.98
2018-07-30T07:55:35.336Z,52.89
2018-07-30T07:56:35.352Z,52.59
2018-07-30T07:57:35.382Z,52.69
2018-07-30T07:58:35.394Z,52.69
2018-07-30T07:59:35.426Z,52.89
2018-07-30T08:00:35.433Z,52.79
2018-07-30T08:01:35.456Z,52.69
2018-07-30T08:02:35.478Z,52.89
2018-07-30T08:03:35.507Z,52.98
2018-07-30T08:04:35.514Z,52.69
2018-07-30T08:05:35.542Z,52.89
2018-07-30T08:06:35.566Z,52.79
2018-07-30T08:07:35.587Z,52.79
2018-07-30T08:08:35.611Z,52.69
2018-07-30T08:09:35.639Z,52.79
2018-07-30T08:10:35.656Z,52.89
2018-07-30T08:11:35.666Z,52.89
2018-07-30T08:12:35.690Z,52.89
2018-07-30T08:13:35.721Z,52.89
2018-07-30T08:14:35.741Z,52.89
2018-07-30T08:15:35.761Z,52.59
2018-07-30T08:16:35.785Z,52.79
2018-07-30T08:17:35.867Z,52.79
2018-07-30T08:18:35.825Z,52.69
2018-07-30T08:19:35.859Z,52.50
2018-07-30T08:20:35.866Z,52.79
2018-07-30T08:21:35.890Z,52.89
2018-07-30T08:22:35.909Z,52.79
2018-07-30T08:23:35.937Z,52.79
2018-07-30T08:24:35.965Z,52.69
2018-07-30T08:25:35.984Z,52.89
2018-07-30T08:26:35.991Z,52.89
2018-07-30T08:27:36.019Z,52.69
2018-07-30T08:28:36.066Z,52.89
2018-07-30T08:29:36.064Z,52.89
2018-07-30T08:30:36.082Z,52.89
2018-07-30T08:31:36.237Z,52.69
2018-07-30T08:32:36.129Z,52.69
2018-07-30T08:33:36.144Z,52.50
2018-07-30T08:34:36.168Z,52.89
2018-07-30T08:35:36.192Z,52.69
2018-07-30T08:36:36.212Z,52.69
2018-07-30T08:37:36.234Z,52.69
2018-07-30T08:38:36.253Z,52.89
2018-07-30T08:39:36.283Z,52.89
2018-07-30T08:40:36.297Z,52.69
2018-07-30T08:41:36.339Z,52.89
2018-07-30T08:42:36.345Z,52.89
2018-07-30T08:43:36.370Z,52.59
2018-07-30T08:44:36.392Z,52.89
2018-07-30T08:45:36.479Z,52.89
2018-07-30T08:46:36.431Z,52.79
2018-07-30T08:47:36.461Z,52.79
2018-07-30T08:48:36.472Z,52.59
2018-07-30T08:49:36.496Z,52.79
2018-07-30T08:50:36.530Z,52.69
2018-07-30T08:51:36.623Z,52.50
2018-07-30T08:52:36.560Z,52.69
2018-07-30T08:53:36.595Z,52.79
2018-07-30T08:54:36.606Z,52.79
2018-07-30T08:55:36.623Z,52.79
2018-07-30T08:56:36.643Z,52.79
2018-07-30T08:57:36.698Z,52.79
2018-07-30T08:58:36.687Z,52.89
2018-07-30T08:59:36.710Z,52.89
2018-07-30T09:00:36.739Z,52.69
2018-07-30T09:01:36.753Z,52.50
2018-07-30T09:02:36.781Z,52.79
2018-07-30T09:03:36.810Z,52.69
2018-07-30T09:04:36.820Z,52.59
2018-07-30T09:05:36.847Z,52.79
2018-07-30T09:06:36.858Z,52.50
2018-07-30T09:07:36.883Z,52.69
2018-07-30T09:08:36.912Z,52.79
2018-07-30T09:09:36.932Z,52.50
2018-07-30T09:10:36.947Z,52.50
2018-07-30T09:11:36.979Z,52.59
2018-07-30T09:12:37.071Z,52.69
2018-07-30T09:13:37.028Z,52.59
2018-07-30T09:14:37.034Z,52.89
2018-07-30T09:15:37.052Z,52.59
2018-07-30T09:16:37.079Z,52.79
2018-07-30T09:17:37.099Z,52.31
2018-07-30T09:18:37.114Z,52.59
2018-07-30T09:19:37.139Z,52.40
2018-07-30T09:20:37.164Z,52.40
2018-07-30T09:21:37.185Z,52.40
2018-07-30T09:22:37.210Z,52.59
2018-07-30T09:23:37.226Z,52.59
2018-07-30T09:24:37.296Z,52.98
2018-07-30T09:25:37.275Z,52.89
2018-07-30T09:26:37.302Z,52.89
2018-07-30T09:27:37.308Z,52.89
2018-07-30T09:28:37.342Z,52.89
2018-07-30T09:29:37.355Z,52.69
2018-07-30T09:30:37.382Z,52.50
2018-07-30T09:31:37.407Z,52.79
2018-07-30T09:32:37.449Z,52.69
2018-07-30T09:33:37.459Z,52.69
2018-07-30T09:34:37.465Z,52.50
2018-07-30T09:35:37.494Z,52.79
2018-07-30T09:36:37.516Z,52.79
2018-07-30T09:37:37.542Z,52.69
2018-07-30T09:38:37.574Z,52.98
2018-07-30T09:39:37.607Z,52.50
2018-07-30T09:40:37.596Z,52.40
2018-07-30T09:41:37.620Z,52.40
2018-07-30T09:42:37.705Z,52.89
2018-07-30T09:43:37.662Z,52.69
2018-07-30T09:44:37.753Z,52.59
2018-07-30T09:45:37.693Z,52.40
2018-07-30T09:46:37.724Z,52.89
2018-07-30T09:47:37.755Z,52.89
2018-07-30T09:48:37.766Z,52.89
2018-07-30T09:49:37.785Z,52.40
2018-07-30T09:50:37.932Z,52.89
2018-07-30T09:51:37.834Z,52.89
2018-07-30T09:52:37.856Z,52.79
2018-07-30T09:53:37.878Z,52.98
2018-07-30T09:54:37.897Z,52.89
2018-07-30T09:55:37.920Z,53.18
2018-07-30T09:56:37.939Z,53.18
2018-07-30T09:57:37.978Z,53.28
2018-07-30T09:58:37.984Z,52.89
2018-07-30T09:59:38.004Z,53.18
2018-07-30T10:00:38.025Z,53.38
2018-07-30T10:01:38.149Z,53.38
2018-07-30T10:02:38.070Z,53.38
2018-07-30T10:03:38.092Z,53.28
2018-07-30T10:04:38.118Z,53.38
2018-07-30T10:05:38.142Z,53.28
2018-07-30T10:06:38.158Z,53.38
2018-07-30T10:07:38.178Z,53.38
2018-07-30T10:08:38.200Z,53.38
2018-07-30T10:09:38.220Z,53.38
2018-07-30T10:10:38.247Z,53.28
2018-07-30T10:11:38.270Z,53.38
2018-07-30T10:12:38.297Z,53.38
2018-07-30T10:13:38.310Z,53.47
2018-07-30T10:14:38.340Z,53.38
2018-07-30T10:15:38.353Z,53.47
2018-07-30T10:16:38.366Z,53.38
2018-07-30T10:17:38.476Z,53.28
2018-07-30T10:18:38.417Z,53.47
2018-07-30T10:19:38.436Z,53.38
2018-07-30T10:20:38.464Z,53.28
2018-07-30T10:21:38.480Z,53.38
2018-07-30T10:22:38.504Z,52.98
2018-07-30T10:23:38.586Z,53.47
2018-07-30T10:24:38.547Z,53.47
2018-07-30T10:25:38.564Z,53.38
2018-07-30T10:26:38.592Z,53.08
2018-07-30T10:27:38.612Z,53.18
2018-07-30T10:28:38.640Z,53.18
2018-07-30T10:29:38.659Z,53.28
2018-07-30T10:30:38.744Z,53.28
2018-07-30T10:31:38.697Z,53.18
2018-07-30T10:32:38.721Z,53.28
2018-07-30T10:33:38.762Z,53.38
2018-07-30T10:34:38.790Z,53.38
2018-07-30T10:35:38.781Z,53.28
2018-07-30T10:36:38.806Z,53.28
2018-07-30T10:37:38.819Z,53.28
2018-07-30T10:38:38.857Z,53.28
2018-07-30T10:39:38.988Z,53.18
2018-07-30T10:40:38.894Z,53.28
2018-07-30T10:41:38.919Z,53.28
2018-07-30T10:42:38.932Z,53.18
2018-07-30T10:43:38.957Z,53.18
2018-07-30T10:44:38.978Z,53.28
2018-07-30T10:45:38.997Z,53.08
2018-07-30T10:46:39.027Z,53.18
2018-07-30T10:47:39.044Z,53.28
2018-07-30T10:48:39.065Z,53.28
2018-07-30T10:49:39.085Z,53.28
2018-07-30T10:50:39.107Z,53.28
2018-07-30T10:51:39.143Z,53.38
2018-07-30T10:52:39.160Z,53.38
2018-07-30T10:53:39.173Z,53.47
2018-07-30T10:54:39.199Z,53.18
2018-07-30T10:55:39.228Z,53.08
2018-07-30T10:56:39.238Z,53.28
2018-07-30T10:57:39.260Z,53.38
2018-07-30T10:58:39.311Z,53.18
2018-07-30T10:59:39.302Z,53.18
2018-07-30T11:00:39.324Z,52.89
2018-07-30T11:01:39.353Z,53.18
2018-07-30T11:02:39.369Z,53.08
2018-07-30T11:03:39.400Z,53.08
2018-07-30T11:04:39.417Z,52.89
2018-07-30T11:05:39.429Z,53.18
2018-07-30T11:06:39.459Z,52.89
2018-07-30T11:07:39.478Z,53.08
2018-07-30T11:08:39.501Z,52.98
2018-07-30T11:09:39.575Z,52.98
2018-07-30T11:10:39.570Z,53.08
2018-07-30T11:11:39.560Z,53.08
2018-07-30T11:12:39.585Z,52.98
2018-07-30T11:13:39.611Z,53.08
2018-07-30T11:14:39.650Z,53.08
2018-07-30T11:15:39.658Z,53.08
2018-07-30T11:16:39.667Z,53.08
2018-07-30T11:17:39.696Z,53.08
2018-07-30T11:18:39.714Z,53.08
2018-07-30T11:19:39.732Z,52.89
2018-07-30T11:20:39.767Z,52.98
2018-07-30T11:21:39.841Z,53.08
2018-07-30T11:22:39.802Z,52.98
2018-07-30T11:23:39.819Z,53.08
2018-07-30T11:24:39.887Z,53.08
2018-07-30T11:25:39.865Z,53.08
2018-07-30T11:26:39.901Z,53.08
2018-07-30T11:27:39.903Z,52.98
2018-07-30T11:28:39.924Z,53.08
2018-07-30T11:29:39.960Z,53.08
2018-07-30T11:30:39.976Z,52.98
2018-07-30T11:31:39.999Z,53.08
2018-07-30T11:32:40.024Z,53.08
2018-07-30T11:33:40.134Z,53.08
2018-07-30T11:34:40.054Z,53.08
2018-07-30T11:35:40.115Z,52.98
2018-07-30T11:36:40.104Z,52.89
2018-07-30T11:37:40.139Z,53.08
2018-07-30T11:38:40.142Z,53.08
2018-07-30T11:39:40.205Z,52.89
2018-07-30T11:40:40.189Z,53.08
2018-07-30T11:41:40.210Z,52.89
2018-07-30T11:42:40.229Z,53.08
2018-07-30T11:43:40.316Z,52.98
2018-07-30T11:44:40.280Z,52.98
2018-07-30T11:45:40.294Z,52.98
2018-07-30T11:46:40.319Z,52.98
2018-07-30T11:47:40.341Z,53.38
2018-07-30T11:48:40.394Z,52.89
2018-07-30T11:49:40.408Z,53.08
2018-07-30T11:50:40.403Z,53.38
2018-07-30T11:51:40.435Z,53.47
2018-07-30T11:52:40.448Z,53.08
2018-07-30T11:53:40.466Z,53.47
2018-07-30T11:54:40.497Z,53.57
2018-07-30T11:55:40.511Z,52.98
2018-07-30T11:56:40.541Z,53.57
2018-07-30T11:57:40.557Z,53.47
2018-07-30T11:58:40.577Z,53.38
2018-07-30T11:59:40.611Z,53.08
2018-07-30T12:00:40.621Z,53.38
2018-07-30T12:01:40.680Z,53.38
2018-07-30T12:02:40.670Z,53.57
2018-07-30T12:03:40.690Z,53.57
2018-07-30T12:04:40.710Z,53.67
2018-07-30T12:05:40.741Z,53.18
2018-07-30T12:06:40.759Z,53.47
2018-07-30T12:07:40.800Z,53.59
2018-07-30T12:08:40.842Z,53.57
2018-07-30T12:09:40.818Z,53.18
2018-07-30T12:10:40.851Z,53.18
2018-07-30T12:11:40.861Z,53.67
2018-07-30T12:12:40.881Z,53.57
2018-07-30T12:13:40.937Z,53.57
2018-07-30T12:14:40.925Z,53.67
2018-07-30T12:15:40.952Z,53.57
2018-07-30T12:16:41.003Z,53.28
2018-07-30T12:17:40.988Z,53.18
2018-07-30T12:18:41.016Z,53.67
2018-07-30T12:19:41.037Z,53.67
2018-07-30T12:20:41.055Z,53.18
2018-07-30T12:21:41.108Z,53.57
2018-07-30T12:22:41.115Z,53.57
2018-07-30T12:23:41.117Z,53.57
2018-07-30T12:24:41.144Z,53.47
2018-07-30T12:25:41.160Z,53.59
2018-07-30T12:26:41.186Z,53.18
2018-07-30T12:27:41.201Z,53.59
2018-07-30T12:28:41.301Z,53.18
2018-07-30T12:29:41.252Z,53.40
2018-07-30T12:30:41.321Z,53.59
2018-07-30T12:31:41.312Z,53.20
2018-07-30T12:32:41.332Z,53.18
2018-07-30T12:33:41.336Z,53.47
2018-07-30T12:34:41.417Z,53.57
2018-07-30T12:35:41.372Z,53.28
2018-07-30T12:36:41.398Z,53.50
2018-07-30T12:37:41.428Z,53.38
2018-07-30T12:38:41.447Z,53.47
2018-07-30T12:39:41.482Z,53.47
2018-07-30T12:40:41.564Z,53.47
2018-07-30T12:41:41.527Z,53.57
2018-07-30T12:42:41.541Z,53.59
2018-07-30T12:43:41.652Z,53.20
2018-07-30T12:44:41.573Z,53.57
2018-07-30T12:45:41.606Z,53.50
2018-07-30T12:46:41.700Z,53.77
2018-07-30T12:47:41.643Z,53.30
2018-07-30T12:48:41.702Z,53.86
2018-07-30T12:49:41.738Z,53.57
2018-07-30T12:50:41.706Z,53.67
2018-07-30T12:51:41.725Z,53.79
2018-07-30T12:52:41.803Z,53.96